Time;durP1;ratioP1;P1;durP2;ratioP2;P2;SDS_P1;SDS_P2;PMS_P1;PMS_P2;Temp;Humidity;BMP_temperature;BMP_pressure;BME280_temperature;BME280_humidity;BME280_pressure;Samples;Min_cycle;Max_cycle;Signal;HPM_P1;HPM_P2
2023/06/28 00:02:22;;;;;;;3.70;2.70;;;;;;;17.53;100.00;96442.44;4990787;28;105308;-61
2023/06/28 00:04:51;;;;;;;3.67;3.10;;;;;;;17.58;100.00;96452.31;4992707;28;102258;-60
2023/06/28 00:07:18;;;;;;;3.57;2.63;;;;;;;17.49;100.00;96448.72;4992502;28;102559;-60
2023/06/28 00:09:45;;;;;;;3.40;2.97;;;;;;;17.38;100.00;96447.22;4993887;28;105500;-60
2023/06/28 00:12:12;;;;;;;3.30;2.97;;;;;;;17.39;100.00;96448.84;4991063;28;105258;-60
2023/06/28 00:14:39;;;;;;;5.03;2.70;;;;;;;17.28;100.00;96461.59;4991897;28;102553;-60
2023/06/28 00:17:06;;;;;;;5.67;3.70;;;;;;;17.32;100.00;96462.63;4991099;28;101870;-60
2023/06/28 00:19:34;;;;;;;3.83;3.17;;;;;;;17.30;100.00;96470.19;4990621;28;105538;-60
2023/06/28 00:22:03;;;;;;;3.40;3.13;;;;;;;16.99;100.00;96481.59;4991868;28;102536;-60
2023/06/28 00:24:30;;;;;;;4.20;3.40;;;;;;;16.94;100.00;96479.00;4990811;28;102047;-60
2023/06/28 00:26:57;;;;;;;4.53;3.40;;;;;;;16.95;100.00;96486.75;4992216;28;102458;-60
2023/06/28 00:29:24;;;;;;;3.57;3.13;;;;;;;16.82;100.00;96492.84;4991637;28;102664;-60
2023/06/28 00:31:51;;;;;;;5.60;3.80;;;;;;;16.94;100.00;96497.81;4994190;28;101889;-60
2023/06/28 00:34:17;;;;;;;4.20;3.33;;;;;;;16.91;100.00;96493.81;4990100;28;105329;-60
2023/06/28 00:36:46;;;;;;;3.73;3.40;;;;;;;16.90;100.00;96502.16;4990803;28;102029;-60
2023/06/28 00:39:13;;;;;;;6.10;4.00;;;;;;;16.91;100.00;96507.25;4991818;28;102332;-61
2023/06/28 00:41:40;;;;;;;4.30;3.07;;;;;;;16.95;100.00;96507.47;4990154;28;105985;-60
2023/06/28 00:44:07;;;;;;;5.37;3.70;;;;;;;16.82;100.00;96519.69;4992087;28;101889;-60
2023/06/28 00:46:36;;;;;;;4.43;3.20;;;;;;;16.76;100.00;96522.72;4990824;28;105716;-60
2023/06/28 00:49:03;;;;;;;4.33;3.47;;;;;;;16.65;100.00;96526.59;4990040;28;105313;-60
2023/06/28 00:51:32;;;;;;;4.57;3.60;;;;;;;16.49;100.00;96530.53;4990370;28;101942;-60
2023/06/28 00:54:00;;;;;;;3.80;3.50;;;;;;;16.28;100.00;96524.53;4993215;28;105504;-60
2023/06/28 00:56:28;;;;;;;7.20;3.77;;;;;;;16.12;100.00;96532.97;4991747;28;101941;-60
2023/06/28 00:58:56;;;;;;;6.83;4.10;;;;;;;16.12;100.00;96528.44;4990527;28;105341;-60
2023/06/28 01:01:23;;;;;;;4.27;3.87;;;;;;;16.15;100.00;96529.75;4989827;28;105903;-61
2023/06/28 01:03:51;;;;;;;4.17;3.50;;;;;;;16.07;100.00;96533.84;4990252;28;102313;-60
2023/06/28 01:06:21;;;;;;;4.13;3.67;;;;;;;15.91;100.00;96542.28;4991768;28;102342;-60
2023/06/28 01:08:50;;;;;;;4.20;3.80;;;;;;;15.92;100.00;96535.84;4989627;28;106293;-60
2023/06/28 01:11:19;;;;;;;5.20;3.50;;;;;;;15.95;100.00;96540.63;4989068;28;102185;-61
2023/06/28 01:13:46;;;;;;;3.57;3.17;;;;;;;15.92;100.00;96563.44;4990049;28;105239;-60
2023/06/28 01:16:13;;;;;;;4.70;4.10;;;;;;;15.96;100.00;96569.09;4992979;28;105597;-60
2023/06/28 01:18:40;;;;;;;4.00;3.60;;;;;;;15.97;100.00;96576.03;4989667;28;105241;-61
2023/06/28 01:21:11;;;;;;;5.20;3.97;;;;;;;16.06;100.00;96574.34;4989420;28;105343;-61
2023/06/28 01:23:40;;;;;;;6.70;4.07;;;;;;;16.00;100.00;96575.47;4989856;28;101850;-60
2023/06/28 01:26:08;;;;;;;4.77;3.70;;;;;;;15.95;100.00;96579.00;4989839;28;105222;-60
2023/06/28 01:28:36;;;;;;;4.10;3.70;;;;;;;15.87;100.00;96576.09;4989452;28;105901;-60
2023/06/28 01:31:03;;;;;;;4.30;3.90;;;;;;;15.90;100.00;96583.59;4989985;28;101878;-61
2023/06/28 01:33:33;;;;;;;4.43;4.00;;;;;;;15.84;100.00;96595.41;4990040;28;105773;-60
2023/06/28 01:36:01;;;;;;;3.93;3.50;;;;;;;15.86;100.00;96587.91;4990622;28;102835;-61
2023/06/28 01:38:29;;;;;;;3.77;3.43;;;;;;;15.94;100.00;96582.75;4992990;28;102020;-60
2023/06/28 01:40:59;;;;;;;4.37;3.77;;;;;;;16.00;100.00;96594.25;4989169;28;105744;-60
2023/06/28 01:43:26;;;;;;;4.60;4.17;;;;;;;15.97;100.00;96592.13;4989871;28;102020;-61
2023/06/28 01:45:57;;;;;;;5.20;4.40;;;;;;;15.97;100.00;96586.78;4989870;28;104873;-60
2023/06/28 01:48:25;;;;;;;3.90;3.60;;;;;;;15.98;100.00;96599.09;4989170;28;105779;-60
2023/06/28 01:50:53;;;;;;;4.53;4.13;;;;;;;15.88;100.00;96604.53;4989326;28;101899;-60
2023/06/28 01:53:21;;;;;;;4.37;3.97;;;;;;;15.72;100.00;96611.88;4989512;28;105473;-60
2023/06/28 01:55:48;;;;;;;4.77;4.37;;;;;;;15.55;100.00;96616.78;4988922;28;105379;-60
2023/06/28 01:58:16;;;;;;;5.10;4.70;;;;;;;15.57;100.00;96620.00;4989473;28;101899;-61
2023/06/28 02:00:43;;;;;;;6.33;4.70;;;;;;;15.64;100.00;96619.69;4992389;28;105811;-60
2023/06/28 02:03:10;;;;;;;6.07;4.43;;;;;;;15.65;100.00;96630.13;4989572;28;101962;-60
2023/06/28 02:05:38;;;;;;;5.77;4.60;;;;;;;15.58;100.00;96618.91;4990649;28;102572;-60
2023/06/28 02:08:05;;;;;;;4.70;4.23;;;;;;;15.58;100.00;96629.63;4988601;28;105705;-60
2023/06/28 02:10:32;;;;;;;5.00;4.50;;;;;;;15.36;100.00;96628.41;4989283;28;101909;-60
2023/06/28 02:12:59;;;;;;;4.97;4.50;;;;;;;15.23;100.00;96640.47;4990860;28;102385;-60
2023/06/28 02:15:31;;;;;;;5.67;4.87;;;;;;;15.20;100.00;96645.56;4989890;28;103144;-61
2023/06/28 02:17:58;;;;;;;5.57;5.00;;;;;;;15.28;100.00;96642.31;4988510;28;101924;-61
2023/06/28 02:20:25;;;;;;;5.60;4.87;;;;;;;15.17;100.00;96640.75;4991843;28;105247;-60
2023/06/28 02:22:52;;;;;;;5.63;4.70;;;;;;;15.18;100.00;96647.72;4990137;28;101869;-60
2023/06/28 02:25:19;;;;;;;5.50;5.03;;;;;;;15.09;100.00;96654.72;4989072;28;105559;-61
2023/06/28 02:27:47;;;;;;;6.87;5.30;;;;;;;14.82;100.00;96660.38;4988513;28;105301;-61
2023/06/28 02:30:15;;;;;;;5.47;4.97;;;;;;;14.58;100.00;96663.88;4989019;28;102050;-61
2023/06/28 02:32:45;;;;;;;5.83;5.33;;;;;;;14.55;100.00;96665.22;4988945;28;105069;-60
2023/06/28 02:35:14;;;;;;;6.53;5.63;;;;;;;14.35;100.00;96669.78;4988629;28;104909;-60
2023/06/28 02:37:41;;;;;;;8.10;5.80;;;;;;;14.48;100.00;96671.91;4990381;28;101830;-61
2023/06/28 02:40:12;;;;;;;6.70;6.20;;;;;;;14.58;100.00;96669.22;4990256;28;102367;-61
2023/06/28 02:42:40;;;;;;;6.63;6.10;;;;;;;14.65;100.00;96670.56;4991582;28;105718;-61
2023/06/28 02:45:08;;;;;;;6.93;5.93;;;;;;;14.64;100.00;96668.97;4990315;28;102503;-61
2023/06/28 02:47:37;;;;;;;7.40;6.10;;;;;;;14.44;100.00;96662.84;4988240;28;103911;-61
2023/06/28 02:50:07;;;;;;;7.43;6.50;;;;;;;14.57;100.00;96681.00;4988861;28;102404;-61
2023/06/28 02:52:42;;;;;;;7.00;6.30;;;;;;;14.39;100.00;96665.50;4988761;28;103677;-60
2023/06/28 02:55:10;;;;;;;6.50;5.80;;;;;;;14.34;100.00;96676.19;4988202;28;105254;-61
2023/06/28 02:57:37;;;;;;;6.60;6.00;;;;;;;14.22;100.00;96671.09;4989888;28;102223;-61
2023/06/28 03:00:11;;;;;;;8.70;6.00;;;;;;;14.16;100.00;96661.44;4988637;28;105338;-61
2023/06/28 03:02:38;;;;;;;8.67;6.03;;;;;;;14.14;100.00;96663.56;4988025;28;105238;-61
2023/06/28 03:05:07;;;;;;;7.93;6.50;;;;;;;14.00;100.00;96667.03;4991853;28;101973;-60
2023/06/28 03:07:34;;;;;;;6.83;6.23;;;;;;;13.98;100.00;96669.16;4987748;28;105434;-61
2023/06/28 03:10:01;;;;;;;8.23;7.43;;;;;;;13.90;100.00;96673.13;4989835;28;101841;-61
2023/06/28 03:12:28;;;;;;;7.60;7.00;;;;;;;13.90;100.00;96677.69;4988424;28;105295;-60
2023/06/28 03:14:54;;;;;;;8.10;7.33;;;;;;;13.85;100.00;96667.78;4989382;28;103046;-61
2023/06/28 03:17:21;;;;;;;8.33;7.60;;;;;;;13.87;100.00;96672.88;4987637;28;102070;-61
2023/06/28 03:19:48;;;;;;;8.47;7.33;;;;;;;13.83;100.00;96672.59;4988351;28;104832;-60
2023/06/28 03:22:17;;;;;;;8.37;7.57;;;;;;;13.76;100.00;96671.25;4987599;28;105544;-60
2023/06/28 03:24:44;;;;;;;8.60;7.57;;;;;;;13.81;100.00;96671.25;4987979;28;101998;-61
2023/06/28 03:27:11;;;;;;;8.77;7.97;;;;;;;13.84;100.00;96673.41;4991033;28;103872;-60
2023/06/28 03:29:39;;;;;;;8.77;7.27;;;;;;;13.83;100.00;96671.78;4988095;28;101943;-60
2023/06/28 03:32:08;;;;;;;10.80;7.13;;;;;;;13.82;100.00;96667.50;4988014;28;104983;-60
2023/06/28 03:34:34;;;;;;;7.93;7.10;;;;;;;13.72;100.00;96665.63;4988564;28;105442;-60
2023/06/28 03:37:02;;;;;;;7.40;6.37;;;;;;;13.67;100.00;96662.94;4991869;28;101943;-60
2023/06/28 03:39:30;;;;;;;8.30;6.80;;;;;;;13.64;100.00;96665.31;4991568;28;105644;-60
2023/06/28 03:41:57;;;;;;;7.93;7.07;;;;;;;13.64;100.00;96660.81;4992316;28;101930;-60
2023/06/28 03:44:24;;;;;;;8.10;7.30;;;;;;;13.77;100.00;96662.16;4991534;28;101983;-60
2023/06/28 03:46:51;;;;;;;8.27;7.47;;;;;;;13.76;100.00;96657.88;4991407;28;105205;-60
2023/06/28 03:49:20;;;;;;;7.73;6.83;;;;;;;13.64;100.00;96651.97;4994406;28;105461;-61
2023/06/28 03:51:47;;;;;;;7.70;7.00;;;;;;;13.62;100.00;96644.19;4991411;28;104935;-60
2023/06/28 03:54:14;;;;;;;8.53;7.27;;;;;;;13.76;100.00;96644.50;4990857;28;105864;-61
2023/06/28 03:56:44;;;;;;;8.10;7.30;;;;;;;13.79;100.00;96639.44;4991382;28;102028;-60
2023/06/28 03:59:12;;;;;;;9.33;8.00;;;;;;;13.85;100.00;96645.59;4992628;28;102423;-60
2023/06/28 04:01:39;;;;;;;8.53;7.00;;;;;;;13.81;100.00;96641.84;4992253;28;102870;-61
2023/06/28 04:04:06;;;;;;;7.10;6.40;;;;;;;13.76;100.00;96634.63;4991204;28;102177;-60
2023/06/28 04:06:33;;;;;;;7.53;6.83;;;;;;;13.68;100.00;96637.81;4991311;28;104197;-61
2023/06/28 04:09:00;;;;;;;6.80;6.20;;;;;;;13.76;100.00;96633.81;4992142;28;103069;-60
2023/06/28 04:11:27;;;;;;;8.50;6.40;;;;;;;13.84;100.00;96639.44;4996034;28;101905;-60
2023/06/28 04:13:55;;;;;;;7.03;6.37;;;;;;;13.76;100.00;96639.16;4990639;28;104435;-60
2023/06/28 04:16:22;;;;;;;6.73;6.13;;;;;;;13.75;100.00;96626.88;4991030;28;101983;-60
2023/06/28 04:18:49;;;;;;;7.70;6.90;;;;;;;13.85;100.00;96627.69;4990254;28;105268;-60
2023/06/28 04:21:16;;;;;;;6.87;6.17;;;;;;;13.78;100.00;96623.66;4990419;28;105748;-60
2023/06/28 04:23:42;;;;;;;6.57;5.97;;;;;;;13.90;100.00;96632.25;4992422;28;101849;-61
2023/06/28 04:26:09;;;;;;;7.03;6.43;;;;;;;13.95;100.00;96624.25;4992374;28;102896;-61
2023/06/28 04:28:36;;;;;;;7.97;6.37;;;;;;;14.00;100.00;96619.69;4991740;28;101777;-61
2023/06/28 04:31:05;;;;;;;6.50;5.90;;;;;;;14.12;100.00;96624.78;4995688;28;101966;-61
2023/06/28 04:33:35;;;;;;;6.77;5.90;;;;;;;14.01;100.00;96621.28;4991418;28;103356;-61
2023/06/28 04:36:02;;;;;;;6.57;5.97;;;;;;;14.08;100.00;96613.84;4991084;28;101983;-60
2023/06/28 04:38:32;;;;;;;6.50;5.90;;;;;;;14.09;100.00;96619.97;4991498;28;105398;-61
2023/06/28 04:40:59;;;;;;;5.83;5.23;;;;;;;14.17;100.00;96614.88;4992178;28;103026;-60
2023/06/28 04:43:26;;;;;;;6.67;5.50;;;;;;;14.22;100.00;96611.47;4991474;28;101996;-60
2023/06/28 04:45:55;;;;;;;7.23;5.37;;;;;;;14.14;100.00;96610.09;4992579;28;102386;-60
2023/06/28 04:48:24;;;;;;;5.93;5.43;;;;;;;14.00;100.00;96609.00;4990831;28;105497;-60
2023/06/28 04:50:51;;;;;;;5.90;5.40;;;;;;;13.97;100.00;96603.38;4992742;28;102081;-60
2023/06/28 04:53:18;;;;;;;8.63;6.03;;;;;;;14.02;100.00;96606.84;4995733;28;102626;-61
2023/06/28 04:55:47;;;;;;;6.07;5.47;;;;;;;14.05;100.00;96602.84;4991356;28;101894;-60
2023/06/28 04:58:14;;;;;;;6.30;5.80;;;;;;;13.98;100.00;96596.97;4992414;28;102308;-60
2023/06/28 05:00:42;;;;;;;6.80;5.73;;;;;;;14.04;100.00;96601.25;4991889;28;102662;-61
2023/06/28 05:03:10;;;;;;;6.63;5.20;;;;;;;14.11;100.00;96599.13;4992675;28;101979;-60
2023/06/28 05:05:39;;;;;;;7.13;5.37;;;;;;;14.31;100.00;96593.78;4992365;28;102396;-62
2023/06/28 05:08:07;;;;;;;7.00;6.00;;;;;;;14.49;100.00;96582.56;4991761;28;102661;-63
2023/06/28 05:10:35;;;;;;;5.60;5.10;;;;;;;14.81;100.00;96585.69;4992555;28;101836;-62
2023/06/28 05:13:02;;;;;;;8.23;5.27;;;;;;;15.11;100.00;96589.09;4992324;28;102431;-63
2023/06/28 05:15:32;;;;;;;7.07;5.87;;;;;;;15.27;100.00;96579.09;4995087;28;102536;-62
2023/06/28 05:17:59;;;;;;;7.60;5.47;;;;;;;15.20;100.00;96581.28;4990219;28;105465;-62
2023/06/28 05:20:28;;;;;;;8.83;5.10;;;;;;;14.92;100.00;96585.38;4991693;28;102822;-63
2023/06/28 05:23:11;;;;;;;7.13;5.20;;;;;;;14.77;100.00;96576.59;4990877;28;101943;-62
2023/06/28 05:25:38;;;;;;;5.83;4.90;;;;;;;15.07;100.00;96581.84;4990859;28;105244;-62
2023/06/28 05:28:05;;;;;;;5.40;4.90;;;;;;;14.94;100.00;96585.13;4989968;28;105440;-62
2023/06/28 05:30:33;;;;;;;4.90;4.40;;;;;;;14.50;100.00;96579.59;4992101;28;101878;-62
2023/06/28 05:33:02;;;;;;;5.33;4.83;;;;;;;14.41;100.00;96575.88;4990644;28;105726;-62
2023/06/28 05:35:30;;;;;;;7.13;5.10;;;;;;;14.45;100.00;96578.81;4990054;28;105743;-62
2023/06/28 05:37:57;;;;;;;5.60;5.00;;;;;;;14.33;100.00;96575.63;4995593;28;101820;-62
2023/06/28 05:40:26;;;;;;;6.53;4.90;;;;;;;14.65;100.00;96579.56;4991410;28;102501;-62
2023/06/28 05:42:53;;;;;;;4.93;4.53;;;;;;;14.99;100.00;96579.75;4991761;28;101910;-62
2023/06/28 05:45:20;;;;;;;5.10;4.70;;;;;;;14.84;100.00;96582.47;4991894;28;102581;-62
2023/06/28 05:47:47;;;;;;;4.50;4.13;;;;;;;14.57;100.00;96582.00;4991204;28;103218;-62
2023/06/28 05:50:15;;;;;;;4.67;4.17;;;;;;;15.22;100.00;96579.13;4991781;28;101836;-62
2023/06/28 05:52:44;;;;;;;5.67;4.57;;;;;;;15.18;100.00;96575.38;4992050;28;101776;-62
2023/06/28 05:55:12;;;;;;;4.30;3.90;;;;;;;14.81;100.00;96578.44;5009082;28;105522;-62
2023/06/28 05:57:41;;;;;;;4.17;3.77;;;;;;;14.85;100.00;96576.03;5010663;28;101965;-62
2023/06/28 06:00:10;;;;;;;4.63;4.00;;;;;;;14.79;100.00;96579.81;5014284;28;102913;-62
2023/06/28 06:02:37;;;;;;;3.80;3.50;;;;;;;14.76;100.00;96580.31;5011010;28;101999;-62
2023/06/28 06:05:05;;;;;;;4.30;3.90;;;;;;;14.55;100.00;96578.78;5010102;28;105343;-62
2023/06/28 06:07:34;;;;;;;3.80;3.50;;;;;;;14.79;100.00;96583.28;5010712;28;103127;-62
2023/06/28 06:10:01;;;;;;;3.57;3.30;;;;;;;14.99;100.00;96582.44;5011188;28;101843;-62
2023/06/28 06:12:28;;;;;;;3.57;3.27;;;;;;;15.12;100.00;96577.28;5009652;28;105616;-62
2023/06/28 06:14:56;;;;;;;4.17;3.40;;;;;;;15.68;100.00;96584.00;5003116;28;102974;-62
2023/06/28 06:17:24;;;;;;;3.07;2.87;;;;;;;15.52;100.00;96574.44;4990404;28;101906;-62
2023/06/28 06:19:50;;;;;;;3.93;3.60;;;;;;;15.97;100.00;96579.50;4989761;28;104980;-62
2023/06/28 06:22:17;;;;;;;3.23;2.83;;;;;;;15.62;100.00;96574.38;4993727;28;101833;-62
2023/06/28 06:24:44;;;;;;;3.40;3.10;;;;;;;15.38;100.00;96578.00;4989727;28;105773;-62
2023/06/28 06:27:11;;;;;;;3.77;3.30;;;;;;;15.11;100.00;96578.38;4990637;28;102526;-62
2023/06/28 06:29:38;;;;;;;3.60;3.30;;;;;;;15.57;100.00;96577.09;4991329;28;101830;-62
2023/06/28 06:32:07;;;;;;;3.10;2.90;;;;;;;15.61;100.00;96575.47;4989782;28;105517;-60
2023/06/28 06:34:34;;;;;;;4.00;3.20;;;;;;;15.43;100.00;96564.59;4990497;28;103070;-59
2023/06/28 06:37:01;;;;;;;3.57;3.27;;;;;;;15.57;100.00;96570.91;4990922;28;101884;-59
2023/06/28 06:39:29;;;;;;;4.10;3.27;;;;;;;15.64;100.00;96582.94;4990998;28;102692;-60
2023/06/28 06:41:56;;;;;;;5.47;3.50;;;;;;;15.77;100.00;96576.16;4992215;28;105775;-60
2023/06/28 06:44:24;;;;;;;3.27;3.07;;;;;;;15.85;100.00;96570.19;4989812;28;105279;-61
2023/06/28 06:46:51;;;;;;;3.37;3.00;;;;;;;16.26;100.00;96569.63;4997151;28;105206;-61
2023/06/28 06:49:20;;;;;;;5.00;2.80;;;;;;;16.38;100.00;96566.56;4996663;28;102042;-60
2023/06/28 06:51:47;;;;;;;3.77;2.80;;;;;;;16.82;100.00;96564.56;4989447;28;105204;-60
2023/06/28 06:54:14;;;;;;;3.00;2.80;;;;;;;16.81;100.00;96565.63;4990426;28;102660;-60
2023/06/28 06:56:41;;;;;;;3.67;2.60;;;;;;;16.53;100.00;96567.28;4989260;28;101983;-60
2023/06/28 06:59:08;;;;;;;5.50;2.80;;;;;;;16.53;100.00;96561.91;4989371;28;105231;-60
2023/06/28 07:01:35;;;;;;;2.60;2.40;;;;;;;16.54;100.00;96566.19;4994913;28;105120;-60
2023/06/28 07:04:02;;;;;;;2.60;2.50;;;;;;;16.44;100.00;96560.91;5011784;28;102073;-60
2023/06/28 07:06:31;;;;;;;2.33;2.20;;;;;;;16.72;100.00;96564.66;4992028;28;104360;-61
2023/06/28 07:08:59;;;;;;;2.80;2.20;;;;;;;16.63;100.00;96558.31;4987857;28;101946;-60
2023/06/28 07:11:26;;;;;;;2.33;2.07;;;;;;;16.43;100.00;96555.81;4988943;28;105332;-60
2023/06/28 07:13:53;;;;;;;4.63;2.27;;;;;;;16.62;100.00;96556.72;4988821;28;105437;-60
2023/06/28 07:16:20;;;;;;;3.03;2.20;;;;;;;16.99;100.00;96556.84;4989685;28;102014;-60
2023/06/28 07:18:47;;;;;;;2.47;2.27;;;;;;;16.75;100.00;96550.66;4994710;28;105667;-60
2023/06/28 07:21:15;;;;;;;2.07;1.97;;;;;;;17.00;100.00;96555.78;5008448;28;104360;-60
2023/06/28 07:23:43;;;;;;;2.20;2.00;;;;;;;17.01;100.00;96552.00;5009530;28;101970;-60
2023/06/28 07:26:10;;;;;;;2.60;1.87;;;;;;;17.05;100.00;96548.44;5002164;28;105535;-60
2023/06/28 07:28:37;;;;;;;2.13;2.03;;;;;;;17.38;100.00;96544.81;4989282;28;101878;-60
2023/06/28 07:31:04;;;;;;;2.00;1.90;;;;;;;17.52;100.00;96540.34;4989076;28;105023;-61
2023/06/28 07:33:31;;;;;;;1.77;1.67;;;;;;;18.15;100.00;96557.66;4988937;28;106038;-60
2023/06/28 07:35:58;;;;;;;2.50;1.77;;;;;;;18.16;100.00;96550.41;4992886;28;102016;-60
2023/06/28 07:38:25;;;;;;;2.93;1.63;;;;;;;18.09;100.00;96550.00;5003869;28;105397;-61
2023/06/28 07:40:53;;;;;;;2.33;1.60;;;;;;;18.40;100.00;96551.09;4999783;28;105110;-61
2023/06/28 07:43:20;;;;;;;1.50;1.40;;;;;;;18.59;100.00;96554.53;4993927;28;102054;-61
2023/06/28 07:45:47;;;;;;;1.80;1.70;;;;;;;18.66;100.00;96550.38;4992107;28;105578;-61
2023/06/28 07:48:14;;;;;;;1.50;1.40;;;;;;;18.46;100.00;96563.38;4995353;28;102557;-61
2023/06/28 07:50:42;;;;;;;2.37;1.50;;;;;;;18.15;100.00;96556.88;4998640;28;104864;-61
2023/06/28 07:53:09;;;;;;;1.73;1.63;;;;;;;18.21;100.00;96559.19;4995123;28;102847;-61
2023/06/28 07:55:36;;;;;;;2.13;1.50;;;;;;;18.58;100.00;96558.34;4998770;28;102110;-61
2023/06/28 07:58:04;;;;;;;2.57;1.40;;;;;;;18.56;100.00;96564.00;5002959;28;102354;-60
2023/06/28 08:00:31;;;;;;;1.60;1.50;;;;;;;18.79;100.00;96564.94;4990631;28;105434;-61
2023/06/28 08:02:58;;;;;;;2.20;1.60;;;;;;;18.82;100.00;96561.66;4991573;28;101889;-61
2023/06/28 08:05:29;;;;;;;1.67;1.57;;;;;;;18.97;100.00;96572.16;4994424;28;104127;-60
2023/06/28 08:07:56;;;;;;;2.73;1.47;;;;;;;19.03;100.00;96565.56;5006048;28;105282;-60
2023/06/28 08:10:25;;;;;;;5.87;1.70;;;;;;;19.04;100.00;96567.97;5011905;28;101944;-61
2023/06/28 08:12:52;;;;;;;1.70;1.60;;;;;;;19.19;100.00;96569.56;5006919;28;102484;-60
2023/06/28 08:15:20;;;;;;;2.07;1.37;;;;;;;19.02;100.00;96566.69;5007255;28;102007;-60
2023/06/28 08:17:47;;;;;;;1.60;1.50;;;;;;;19.30;100.00;96565.59;5004449;28;105333;-60
2023/06/28 08:20:14;;;;;;;1.33;1.30;;;;;;;19.29;100.00;96569.41;5004261;28;102805;-60
2023/06/28 08:22:41;;;;;;;3.43;1.50;;;;;;;19.19;100.00;96569.56;5020988;28;101885;-60
2023/06/28 08:25:09;;;;;;;1.30;1.20;;;;;;;19.17;100.00;96566.34;4997062;28;104885;-60
2023/06/28 08:27:36;;;;;;;1.50;1.40;;;;;;;19.21;100.00;96570.91;4991312;28;105108;-60
2023/06/28 08:30:04;;;;;;;1.70;1.20;;;;;;;19.55;100.00;96575.84;4995275;28;101938;-61
2023/06/28 08:32:34;;;;;;;1.20;1.20;;;;;;;19.64;100.00;96568.66;4993339;28;102600;-61
2023/06/28 08:35:02;;;;;;;1.53;1.30;;;;;;;19.78;100.00;96570.22;4992928;28;101934;-61
2023/06/28 08:37:31;;;;;;;1.47;1.20;;;;;;;19.62;100.00;96565.47;5012836;28;102533;-60
2023/06/28 08:39:58;;;;;;;1.50;1.40;;;;;;;19.44;100.00;96571.75;4996998;28;105302;-60
2023/06/28 08:42:28;;;;;;;1.80;1.47;;;;;;;19.60;100.00;96571.16;4992972;28;101818;-60
2023/06/28 08:44:57;;;;;;;1.43;1.33;;;;;;;19.48;100.00;96562.78;4991536;28;105926;-60
2023/06/28 08:47:29;;;;;;;1.77;1.33;;;;;;;20.03;100.00;96566.13;4991712;28;105408;-59
2023/06/28 08:49:57;;;;;;;1.30;1.20;;;;;;;20.09;100.00;96568.44;4992509;28;101884;-60
2023/06/28 08:52:25;;;;;;;2.77;1.40;;;;;;;20.23;100.00;96577.31;4994174;28;105402;-60
2023/06/28 08:54:53;;;;;;;1.37;1.10;;;;;;;20.06;100.00;96573.63;4992706;28;101831;-60
2023/06/28 08:57:21;;;;;;;1.13;1.10;;;;;;;19.81;100.00;96571.50;5011039;28;105208;-60
2023/06/28 08:59:48;;;;;;;1.37;1.20;;;;;;;19.90;100.00;96570.47;4993396;28;103225;-60
2023/06/28 09:02:17;;;;;;;1.23;1.13;;;;;;;20.23;100.00;96571.09;4991233;28;102121;-60
2023/06/28 09:04:44;;;;;;;2.00;1.20;;;;;;;20.80;100.00;96564.78;4991256;28;105614;-60
2023/06/28 09:07:15;;;;;;;1.20;1.20;;;;;;;21.29;100.00;96561.81;5001588;28;105434;-60
2023/06/28 09:09:44;;;;;;;2.83;1.40;;;;;;;21.27;100.00;96561.34;5010315;28;103503;-60
2023/06/28 09:12:12;;;;;;;1.93;1.10;;;;;;;20.16;100.00;96562.63;4991965;28;105806;-60
2023/06/28 09:14:40;;;;;;;1.60;1.50;;;;;;;20.61;100.00;96566.91;4993897;28;105734;-60
2023/06/28 09:17:07;;;;;;;1.57;1.30;;;;;;;21.07;100.00;96553.78;4991081;28;105745;-64
2023/06/28 09:19:34;;;;;;;1.87;1.47;;;;;;;19.80;100.00;96559.94;4990966;28;105686;-60
2023/06/28 09:22:07;;;;;;;2.53;1.53;;;;;;;20.08;100.00;96549.84;4998578;28;102100;-60
2023/06/28 09:24:36;;;;;;;1.70;1.50;;;;;;;20.27;100.00;96537.75;4997954;28;104770;-60
2023/06/28 09:27:07;;;;;;;2.30;1.47;;;;;;;21.03;100.00;96539.31;4993597;28;105005;-60
2023/06/28 09:29:35;;;;;;;1.57;1.47;;;;;;;20.97;100.00;96535.13;4991288;28;101863;-60
2023/06/28 09:32:02;;;;;;;1.70;1.60;;;;;;;21.47;100.00;96534.50;5009729;28;104832;-60
2023/06/28 09:34:29;;;;;;;1.63;1.40;;;;;;;21.40;100.00;96527.97;5009485;28;106176;-60
2023/06/28 09:37:00;;;;;;;1.40;1.30;;;;;;;21.87;100.00;96541.44;5007705;28;102017;-60
2023/06/28 09:39:27;;;;;;;1.27;1.17;;;;;;;21.63;100.00;96532.16;5009905;28;105396;-60
2023/06/28 09:41:56;;;;;;;1.73;1.50;;;;;;;21.26;100.00;96538.13;5008968;28;102073;-61
2023/06/28 09:44:30;;;;;;;2.27;1.50;;;;;;;20.88;100.00;96534.28;4992703;28;105272;-60
2023/06/28 09:47:02;;;;;;;1.70;1.40;;;;;;;21.11;100.00;96533.13;4991112;28;105180;-61
2023/06/28 09:49:29;;;;;;;1.87;1.30;;;;;;;21.28;100.00;96525.88;4990415;28;101955;-62
2023/06/28 09:51:59;;;;;;;1.87;1.30;;;;;;;21.38;100.00;96525.59;4990338;28;104890;-61
2023/06/28 09:54:32;;;;;;;2.30;1.50;;;;;;;21.25;100.00;96529.19;4991065;28;103097;-61
2023/06/28 09:57:02;;;;;;;2.20;1.67;;;;;;;20.39;100.00;96545.31;4992187;28;101864;-60
2023/06/28 09:59:33;;;;;;;1.73;1.47;;;;;;;20.40;100.00;96541.50;4994180;28;105350;-64
2023/06/28 10:02:00;;;;;;;1.80;1.50;;;;;;;20.85;100.00;96533.00;4992823;28;102212;-59
2023/06/28 10:04:29;;;;;;;1.67;1.57;;;;;;;20.71;100.00;96531.50;5005592;28;105150;-60
2023/06/28 10:07:00;;;;;;;2.10;1.60;;;;;;;20.04;100.00;96540.72;5007732;28;105330;-60
2023/06/28 10:09:34;;;;;;;1.53;1.43;;;;;;;20.48;100.00;96538.06;5010276;28;101895;-60
2023/06/28 10:12:08;;;;;;;2.13;1.47;;;;;;;20.53;100.00;96532.50;5009984;28;105197;-61
2023/06/28 10:14:40;;;;;;;2.20;1.80;;;;;;;20.36;100.00;96530.53;5006298;28;103175;-61
2023/06/28 10:17:08;;;;;;;1.93;1.73;;;;;;;20.25;100.00;96544.56;4991393;28;101759;-60
2023/06/28 10:19:35;;;;;;;3.77;1.60;;;;;;;20.67;100.00;96536.75;4990684;28;102417;-61
2023/06/28 10:22:02;;;;;;;1.77;1.47;;;;;;;20.73;100.00;96538.22;4994285;28;103084;-61
2023/06/28 10:24:32;;;;;;;1.90;1.80;;;;;;;21.39;100.00;96538.00;4991020;28;105266;-61
2023/06/28 10:27:00;;;;;;;1.80;1.57;;;;;;;21.60;100.00;96538.19;4989726;28;105665;-61
2023/06/28 10:29:30;;;;;;;1.80;1.70;;;;;;;20.90;100.00;96530.19;5004082;28;101897;-61
2023/06/28 10:31:58;;;;;;;1.70;1.57;;;;;;;21.39;100.00;96534.47;4994491;28;103577;-60
2023/06/28 10:34:25;;;;;;;1.93;1.80;;;;;;;21.73;100.00;96527.25;4991464;28;106034;-60
2023/06/28 10:36:52;;;;;;;2.13;1.50;;;;;;;21.98;100.00;96525.66;4989584;28;102010;-61
2023/06/28 10:39:19;;;;;;;2.23;1.70;;;;;;;22.49;94.88;96529.16;4990627;28;105452;-60
2023/06/28 10:41:46;;;;;;;1.87;1.67;;;;;;;22.54;91.92;96520.03;4994865;28;102754;-61
2023/06/28 10:44:13;;;;;;;1.93;1.50;;;;;;;23.12;83.95;96526.41;4993256;28;105384;-61
2023/06/28 10:46:42;;;;;;;1.40;1.30;;;;;;;22.27;93.61;96521.19;4990438;28;102620;-61
2023/06/28 10:49:17;;;;;;;1.90;1.47;;;;;;;;;;4991079;28;101802;-60
2023/06/28 10:51:46;;;;;;;1.30;1.20;;;;;;;22.45;84.68;96514.63;4991193;28;102842;-60
2023/06/28 10:54:14;;;;;;;1.50;1.27;;;;;;;22.52;81.60;96522.28;4989720;28;105837;-60
2023/06/28 10:56:45;;;;;;;1.40;1.30;;;;;;;21.66;90.78;96526.09;4990863;28;101840;-59
2023/06/28 10:59:12;;;;;;;1.90;1.57;;;;;;;21.34;88.71;96521.91;4989706;28;105601;-60
2023/06/28 11:01:40;;;;;;;2.27;1.50;;;;;;;22.43;94.18;96522.28;4990133;28;102761;-60
2023/06/28 11:04:18;;;;;;;1.97;1.30;;;;;;;23.74;66.16;96515.66;4993766;28;102297;-60
2023/06/28 11:06:45;;;;;;;2.60;1.77;;;;;;;22.34;70.24;96516.06;4988710;28;105807;-60
2023/06/28 11:09:14;;;;;;;1.70;1.50;;;;;;;22.78;70.72;96515.66;4997558;28;101983;-61
2023/06/28 11:11:54;;;;;;;1.50;1.33;;;;;;;22.96;81.22;96516.41;5010583;28;101710;-60
2023/06/28 11:14:22;;;;;;;1.90;1.70;;;;;;;22.21;80.18;96517.06;5006502;28;102489;-60
2023/06/28 11:16:50;;;;;;;1.53;1.43;;;;;;;22.23;88.10;96508.63;5002871;28;101864;-60
2023/06/28 11:19:22;;;;;;;2.23;1.60;;;;;;;22.05;94.16;96504.31;5008363;28;104891;-60
2023/06/28 11:21:55;;;;;;;2.03;1.43;;;;;;;22.85;99.95;96509.75;4990767;28;105877;-60
2023/06/28 11:24:26;;;;;;;1.63;1.40;;;;;;;23.02;93.91;96523.25;4996389;28;101875;-61